Village, VA (22570)

10:28 PM EST on February 12, 2016 (GMT -0500)
Lodge Creek | | Change Station
CLOSE
Current Station
Personal Weather Station
Location: Callao, VA
Elevation: 21 ft
Nearby Weather Stations

Elev 21 ft 38.00 °N, 76.55 °W | Updated 5 minutes ago

Mostly Cloudy
Mostly Cloudy
24.3 °F
Feels Like 24 °F
N
0.0
Wind Variable Wind from NW
Gusts 0.0 mph

Today
High -- | Low -- °F
--% Chance of Precip.
Yesterday
High -- | Low -- °F
Precip. -- in
Pressure 30.00 in
Visibility 10.0 miles
Clouds Few 8500 ft
Mostly Cloudy 12000 ft
Windchill 24 °F
Dew Point -24 °F
Humidity 10%
Rainfall 0.00 in
Snow Depth Not available.
7:00 AM 5:41 PM
Waxing Crescent, 26% visible
METAR KNUI 130253Z AUTO 22003KT 10SM FEW085 BKN120 M03/M07 A3000 RMK AO2 SLP159 T10281067 58004
Pressure 30.00 in
Visibility 10.0 miles
Clouds Few 8500 ft
Mostly Cloudy 12000 ft
Windchill 24 °F
Dew Point -24 °F
Humidity 10%
Rainfall 0.00 in
Snow Depth Not available.
7:00 AM 5:41 PM
Waxing Crescent, 26% visible
METAR KNUI 130253Z AUTO 22003KT 10SM FEW085 BKN120 M03/M07 A3000 RMK AO2 SLP159 T10281067 58004

10-Day Weather Forecast

Almanac

Astronomy

Feb. 12, 2016 Rise Set
Actual Time
Civil Twilight
Nautical Twilight
Astronomical Twilight
Moon
Length of Visible Light
Length of Day
Tomorrow will be .
, % of the Moon is Illuminated

Today's Extremes

State Highs State Lows

Community

WunderPhotos

Upload Photos

1,892,491 photos uploaded!

WunderBlog® & News

Nearby

Air Quality

  Air Quality AQ Index Pollutant
Not available.

Snow Depth

Station Depth Elevation

Earthquake Activity

City Distance Mag. Time & Date
Minimum magnitude displayed is 2.5.

Coastal Water Temperatures

Place Temperature

Stations

Nearby Weather Stations

Station Location Temp. Windchill Dew Point Humidity Wind Precip. Elev Updated Type
                   

Watches & Warnings

There are currently no watches in effect.